createdAt,value
2022-08-09T00:00:23.124Z,1.38
2022-08-09T00:02:51.646Z,1.40
2022-08-09T00:06:18.563Z,1.58
2022-08-09T00:08:09.978Z,1.23
2022-08-09T00:10:38.583Z,1.33
2022-08-09T00:13:17.157Z,1.30
2022-08-09T00:16:00.141Z,1.20
2022-08-09T00:18:31.448Z,1.23
2022-08-09T00:21:07.929Z,1.75
2022-08-09T00:23:56.056Z,1.30
2022-08-09T00:26:29.788Z,1.35
2022-08-09T00:29:00.807Z,1.30
2022-08-09T00:31:57.328Z,1.38
2022-08-09T00:34:14.653Z,1.42
2022-08-09T00:36:46.071Z,1.52
2022-08-09T00:40:01.780Z,1.27
2022-08-09T00:44:16.858Z,1.30
2022-08-09T00:44:46.979Z,1.50
2022-08-09T00:47:15.668Z,1.50
2022-08-09T00:49:52.656Z,1.95
2022-08-09T00:52:30.060Z,1.50
2022-08-09T00:55:01.819Z,1.30
2022-08-09T00:57:35.102Z,1.60
2022-08-09T01:00:21.657Z,1.65
2022-08-09T01:03:13.558Z,1.35
2022-08-09T01:05:53.418Z,1.20
2022-08-09T01:08:27.324Z,1.50
2022-08-09T01:11:03.444Z,1.60
2022-08-09T01:13:41.950Z,1.77
2022-08-09T01:16:23.734Z,1.67
2022-08-09T01:19:02.562Z,2.10
2022-08-09T01:22:12.293Z,1.70
2022-08-09T01:24:50.470Z,1.40
2022-08-09T01:27:19.995Z,1.48
2022-08-09T01:29:55.473Z,1.27
2022-08-09T01:32:31.067Z,1.80
2022-08-09T01:35:38.739Z,1.50
2022-08-09T01:38:15.971Z,1.70
2022-08-09T01:40:52.901Z,1.55
2022-08-09T01:43:42.298Z,1.95
2022-08-09T01:46:26.448Z,1.80
2022-08-09T01:48:56.390Z,1.70
2022-08-09T01:51:26.115Z,1.90
2022-08-09T01:53:54.731Z,2.10
2022-08-09T01:56:25.557Z,1.80
2022-08-09T01:58:54.070Z,1.95
2022-08-09T02:01:21.486Z,1.90
2022-08-09T02:04:09.815Z,1.70
2022-08-09T02:06:58.966Z,1.85
2022-08-09T02:09:41.886Z,1.50
2022-08-09T02:12:13.400Z,1.55
2022-08-09T02:14:51.640Z,2.20
2022-08-09T02:17:59.297Z,2.03
2022-08-09T02:20:09.193Z,2.45
2022-08-09T02:22:56.697Z,1.80
2022-08-09T02:25:26.627Z,1.95
2022-08-09T02:28:09.546Z,1.80
2022-08-09T02:30:46.444Z,1.80
2022-08-09T02:33:17.001Z,1.80
2022-08-09T02:36:01.370Z,2.00
2022-08-09T02:38:31.883Z,1.98
2022-08-09T02:41:11.031Z,2.60
2022-08-09T02:43:54.284Z,1.75
2022-08-09T02:46:27.895Z,2.15
2022-08-09T02:48:59.620Z,1.98
2022-08-09T02:51:26.705Z,2.13
2022-08-09T02:54:00.363Z,1.83
2022-08-09T02:56:28.531Z,1.63
2022-08-09T02:58:55.818Z,1.90
2022-08-09T03:01:42.508Z,2.05
2022-08-09T03:04:16.963Z,2.05
2022-08-09T03:06:45.999Z,2.03
2022-08-09T03:09:16.413Z,2.28
2022-08-09T03:12:05.743Z,2.30
2022-08-09T03:14:32.117Z,1.85
2022-08-09T03:17:01.737Z,2.25
2022-08-09T03:19:52.378Z,2.20
2022-08-09T03:22:25.179Z,2.40
2022-08-09T03:25:06.670Z,2.30
2022-08-09T03:27:51.944Z,3.08
2022-08-09T03:30:30.254Z,2.50
2022-08-09T03:33:18.531Z,2.72
2022-08-09T03:36:13.414Z,2.20
2022-08-09T03:38:42.760Z,2.50
2022-08-09T03:41:15.619Z,2.17
2022-08-09T03:44:03.590Z,2.75
2022-08-09T03:46:34.281Z,2.03
2022-08-09T03:49:04.204Z,3.00
2022-08-09T03:51:56.365Z,2.53
2022-08-09T03:54:29.807Z,2.55
2022-08-09T03:56:58.282Z,2.05
2022-08-09T03:59:42.728Z,2.63
2022-08-09T04:02:11.761Z,2.22
2022-08-09T04:04:41.284Z,3.22
2022-08-09T04:07:13.168Z,2.40
2022-08-09T04:09:48.420Z,2.75
2022-08-09T04:12:29.942Z,2.45
2022-08-09T04:15:02.174Z,2.63
2022-08-09T04:17:42.393Z,2.58
2022-08-09T04:20:11.712Z,2.50
2022-08-09T04:22:41.323Z,2.42
2022-08-09T04:25:11.654Z,2.40
2022-08-09T04:27:42.585Z,2.50
2022-08-09T04:30:20.825Z,2.60
2022-08-09T04:32:50.626Z,2.88
2022-08-09T04:35:17.488Z,2.33
2022-08-09T04:37:48.427Z,2.80
2022-08-09T04:40:19.091Z,2.72
2022-08-09T04:42:48.607Z,2.50
2022-08-09T04:45:16.674Z,2.50
2022-08-09T04:47:59.505Z,2.75
2022-08-09T04:50:31.897Z,2.42
2022-08-09T04:53:13.096Z,2.65
2022-08-09T04:55:58.150Z,2.55
2022-08-09T04:58:29.876Z,2.55
2022-08-09T05:00:59.515Z,2.55
2022-08-09T05:03:40.698Z,2.60
2022-08-09T05:06:11.907Z,2.58
2022-08-09T05:08:52.424Z,2.45
2022-08-09T05:11:32.146Z,2.63
2022-08-09T05:13:59.528Z,3.05
2022-08-09T05:16:31.761Z,3.17
2022-08-09T05:21:30.336Z,2.63
2022-08-09T05:24:01.867Z,2.47
2022-08-09T05:26:37.065Z,2.45
2022-08-09T05:29:24.515Z,2.63
2022-08-09T05:32:00.525Z,2.72
2022-08-09T05:34:30.956Z,2.92
2022-08-09T05:37:05.871Z,2.78
2022-08-09T05:39:42.468Z,2.33
2022-08-09T05:42:17.393Z,2.45
2022-08-09T05:44:50.741Z,2.20
2022-08-09T05:47:19.735Z,2.42
2022-08-09T05:50:32.252Z,2.58
2022-08-09T05:52:36.265Z,2.53
2022-08-09T05:55:07.315Z,2.65
2022-08-09T05:57:51.088Z,2.78
2022-08-09T06:00:22.386Z,2.70
2022-08-09T06:02:49.152Z,2.75
2022-08-09T06:05:30.625Z,2.95
2022-08-09T06:08:09.236Z,3.30
2022-08-09T06:10:38.057Z,3.15
2022-08-09T06:13:18.816Z,3.60
2022-08-09T06:15:47.227Z,3.60
2022-08-09T06:18:25.237Z,2.83
2022-08-09T06:20:57.783Z,2.60
2022-08-09T06:23:58.951Z,2.80
2022-08-09T06:26:15.117Z,2.15
2022-08-09T06:28:47.371Z,2.70
2022-08-09T06:31:14.033Z,2.38
2022-08-09T06:33:42.080Z,2.47
2022-08-09T06:36:15.491Z,2.55
2022-08-09T06:38:49.984Z,2.33
2022-08-09T06:41:18.716Z,2.13
2022-08-09T06:43:48.059Z,2.40
2022-08-09T06:46:39.579Z,2.30
2022-08-09T06:49:02.319Z,2.05
2022-08-09T06:51:29.007Z,2.00
2022-08-09T06:53:55.896Z,2.17
2022-08-09T06:56:31.174Z,2.40
2022-08-09T07:00:55.467Z,2.25
2022-08-09T07:01:54.745Z,1.90
2022-08-09T07:04:26.972Z,2.28
2022-08-09T07:07:00.322Z,2.15
2022-08-09T07:09:56.468Z,2.33
2022-08-09T07:12:17.671Z,2.60
2022-08-09T07:14:50.793Z,2.38
2022-08-09T07:17:19.886Z,2.60
2022-08-09T07:19:48.257Z,2.30
2022-08-09T07:22:18.393Z,2.60
2022-08-09T07:24:49.452Z,2.20
2022-08-09T07:27:33.531Z,2.25
2022-08-09T07:30:02.045Z,1.98
2022-08-09T07:32:32.189Z,2.28
2022-08-09T07:35:02.668Z,2.38
2022-08-09T07:37:29.662Z,2.10
2022-08-09T07:39:56.374Z,2.17
2022-08-09T07:42:32.431Z,2.53
2022-08-09T07:45:01.724Z,2.55
2022-08-09T07:47:39.459Z,2.08
2022-08-09T07:50:16.597Z,1.80
2022-08-09T07:52:43.812Z,2.10
2022-08-09T07:55:14.178Z,1.80
2022-08-09T07:57:47.509Z,2.25
2022-08-09T08:00:36.179Z,2.25
2022-08-09T08:03:08.718Z,2.40
2022-08-09T08:05:54.137Z,2.53
2022-08-09T08:09:01.542Z,2.10
2022-08-09T08:12:09.740Z,2.00
2022-08-09T08:14:02.020Z,1.85
2022-08-09T08:16:32.294Z,2.40
2022-08-09T08:19:03.003Z,2.05
2022-08-09T08:21:31.463Z,1.83
2022-08-09T08:24:01.200Z,2.05
2022-08-09T08:26:54.578Z,1.80
2022-08-09T08:29:20.416Z,2.28
2022-08-09T08:32:03.903Z,2.28
2022-08-09T08:34:33.446Z,2.08
2022-08-09T08:37:01.329Z,1.60
2022-08-09T08:39:28.722Z,1.60
2022-08-09T08:41:58.685Z,1.70
2022-08-09T08:44:29.233Z,1.95
2022-08-09T08:47:02.988Z,1.90
2022-08-09T08:49:48.117Z,1.80
2022-08-09T08:55:10.910Z,2.30
2022-08-09T08:57:40.870Z,1.73
2022-08-09T09:00:16.756Z,1.73
2022-08-09T09:02:52.542Z,1.88
2022-08-09T09:05:58.497Z,1.70
2022-08-09T09:08:30.082Z,1.48
2022-08-09T09:11:06.658Z,1.55
2022-08-09T09:13:57.274Z,1.55
2022-08-09T09:16:31.847Z,1.75
2022-08-09T09:19:37.618Z,1.70
2022-08-09T09:22:02.976Z,1.88
2022-08-09T09:24:34.720Z,1.83
2022-08-09T09:27:02.667Z,1.50
2022-08-09T09:30:05.402Z,1.60
2022-08-09T09:32:35.473Z,1.48
2022-08-09T09:35:09.116Z,1.40
2022-08-09T09:37:40.531Z,1.50
2022-08-09T09:40:13.040Z,1.60
2022-08-09T09:42:42.815Z,1.90
2022-08-09T09:45:14.516Z,1.58
2022-08-09T09:47:58.766Z,1.67
2022-08-09T09:50:50.658Z,1.40
2022-08-09T09:53:57.318Z,1.52
2022-08-09T09:56:30.987Z,1.55
2022-08-09T09:59:01.649Z,1.38
2022-08-09T10:01:31.477Z,2.15
2022-08-09T10:04:30.313Z,1.45
2022-08-09T10:06:57.885Z,1.85
2022-08-09T10:09:28.556Z,1.23
2022-08-09T10:12:11.731Z,1.70
2022-08-09T10:14:47.672Z,1.60
2022-08-09T10:17:51.051Z,1.52
2022-08-09T10:20:27.151Z,1.67
2022-08-09T10:23:19.922Z,1.45
2022-08-09T10:26:06.516Z,1.77
2022-08-09T10:28:35.482Z,1.90
2022-08-09T10:34:18.851Z,1.63
2022-08-09T10:36:37.242Z,1.50
2022-08-09T10:39:05.959Z,1.63
2022-08-09T10:41:43.234Z,1.45
2022-08-09T10:44:10.336Z,1.38
2022-08-09T10:46:55.808Z,1.50
2022-08-09T10:49:50.017Z,1.63
2022-08-09T10:52:38.214Z,1.48
2022-08-09T10:55:24.428Z,1.30
2022-08-09T10:57:55.421Z,1.40
2022-08-09T11:00:28.924Z,1.27
2022-08-09T11:03:16.281Z,1.40
2022-08-09T11:06:15.273Z,1.60
2022-08-09T11:08:47.356Z,1.42
2022-08-09T11:11:16.275Z,1.50
2022-08-09T11:13:54.250Z,1.77
2022-08-09T11:16:40.769Z,1.40
2022-08-09T11:19:10.639Z,1.50
2022-08-09T11:22:10.311Z,1.33
2022-08-09T11:25:08.135Z,1.67
2022-08-09T11:28:04.930Z,1.42
2022-08-09T11:30:32.593Z,1.40
2022-08-09T11:33:04.864Z,1.70
2022-08-09T11:35:51.737Z,1.50
2022-08-09T11:38:33.208Z,1.50
2022-08-09T11:41:03.853Z,1.58
2022-08-09T11:43:32.383Z,1.60
2022-08-09T11:46:03.398Z,1.50
2022-08-09T11:48:32.012Z,1.38
2022-08-09T11:51:38.125Z,1.63
2022-08-09T11:54:01.416Z,1.50
2022-08-09T11:56:42.445Z,1.30
2022-08-09T11:59:30.318Z,1.60
2022-08-09T12:02:17.288Z,2.00
2022-08-09T12:04:47.007Z,1.33
2022-08-09T12:07:14.329Z,1.70
2022-08-09T12:09:50.775Z,1.33
2022-08-09T12:12:28.843Z,1.38
2022-08-09T12:15:50.280Z,1.48
2022-08-09T12:18:29.849Z,1.70
2022-08-09T12:21:00.567Z,1.30
2022-08-09T12:23:58.117Z,3.05
2022-08-09T12:26:25.825Z,1.80
2022-08-09T12:29:09.666Z,1.50
2022-08-09T12:31:59.023Z,1.65
2022-08-09T12:34:38.872Z,1.60
2022-08-09T12:37:21.627Z,1.33
2022-08-09T12:40:05.766Z,1.45
2022-08-09T12:42:33.054Z,1.50
2022-08-09T12:45:00.689Z,1.08
2022-08-09T12:47:37.187Z,1.50
2022-08-09T12:50:17.444Z,1.30
2022-08-09T12:53:08.002Z,1.33
2022-08-09T12:56:14.779Z,1.20
2022-08-09T12:58:27.211Z,1.15
2022-08-09T13:00:56.016Z,1.20
2022-08-09T13:03:57.366Z,1.30
2022-08-09T13:06:39.118Z,1.55
2022-08-09T13:09:13.079Z,1.23
2022-08-09T13:11:42.919Z,1.60
2022-08-09T13:14:42.956Z,1.30
2022-08-09T13:17:04.813Z,1.10
2022-08-09T13:20:06.808Z,1.02
2022-08-09T13:22:37.480Z,1.20
2022-08-09T13:25:14.320Z,1.23
2022-08-09T13:27:48.234Z,1.10
2022-08-09T13:30:48.890Z,1.00
2022-08-09T13:33:52.478Z,1.00
2022-08-09T13:36:39.705Z,1.10
2022-08-09T13:41:19.374Z,1.15
2022-08-09T13:42:01.024Z,1.10
2022-08-09T13:44:28.961Z,1.23
2022-08-09T13:47:27.326Z,1.25
2022-08-09T13:49:56.009Z,1.50
2022-08-09T13:52:25.393Z,1.10
2022-08-09T13:55:00.667Z,1.42
2022-08-09T13:57:42.472Z,1.05
2022-08-09T14:00:19.518Z,1.52
2022-08-09T14:03:16.779Z,1.05
2022-08-09T14:06:00.527Z,1.05
2022-08-09T14:08:26.977Z,0.90
2022-08-09T14:10:54.486Z,1.08
2022-08-09T14:14:16.249Z,1.05
2022-08-09T14:16:14.148Z,1.10
2022-08-09T14:21:21.099Z,1.27
2022-08-09T14:23:56.664Z,1.30
2022-08-09T14:26:30.518Z,1.40
2022-08-09T14:29:25.221Z,1.13
2022-08-09T14:31:55.657Z,1.02
2022-08-09T14:34:31.517Z,1.20
2022-08-09T14:37:06.842Z,0.82
2022-08-09T14:39:40.262Z,1.02
2022-08-09T14:42:28.885Z,1.05
2022-08-09T14:46:51.327Z,1.00
2022-08-09T14:47:58.513Z,1.02
2022-08-09T14:50:29.210Z,1.00
2022-08-09T14:52:57.680Z,1.20
2022-08-09T14:55:24.670Z,1.05
2022-08-09T14:57:51.726Z,1.40
2022-08-09T15:00:18.482Z,0.93
2022-08-09T15:02:47.817Z,1.30
2022-08-09T15:05:19.141Z,1.35
2022-08-09T15:07:54.838Z,1.40
2022-08-09T15:10:25.451Z,1.20
2022-08-09T15:12:56.874Z,1.17
2022-08-09T15:15:24.632Z,1.30
2022-08-09T15:17:56.082Z,1.20
2022-08-09T15:21:55.464Z,1.05
2022-08-09T15:24:01.798Z,1.40
2022-08-09T15:25:58.526Z,1.65
2022-08-09T15:28:28.437Z,1.33
2022-08-09T15:31:13.259Z,1.13
2022-08-09T15:34:27.517Z,1.80
2022-08-09T15:36:32.127Z,1.35
2022-08-09T15:39:00.081Z,1.33
2022-08-09T15:41:31.196Z,1.58
2022-08-09T15:46:32.802Z,1.27
2022-08-09T15:49:21.815Z,1.20
2022-08-09T15:52:04.726Z,1.10
2022-08-09T15:54:48.933Z,1.70
2022-08-09T15:57:35.762Z,1.95
2022-08-09T16:00:14.865Z,1.05
2022-08-09T16:02:48.096Z,1.42
2022-08-09T16:05:23.738Z,1.58
2022-08-09T16:07:51.079Z,1.30
2022-08-09T16:10:54.681Z,1.40
2022-08-09T16:13:18.941Z,1.55
2022-08-09T16:16:10.959Z,1.88
2022-08-09T16:18:45.328Z,1.55
2022-08-09T16:21:16.811Z,1.48
2022-08-09T16:23:54.778Z,1.70
2022-08-09T16:26:33.572Z,1.63
2022-08-09T16:29:12.514Z,1.38
2022-08-09T16:32:19.619Z,1.73
2022-08-09T16:34:55.516Z,1.33
2022-08-09T16:37:54.786Z,1.55
2022-08-09T16:40:09.981Z,1.55
2022-08-09T16:42:37.662Z,1.70
2022-08-09T16:45:05.835Z,1.52
2022-08-09T16:48:40.748Z,1.58
2022-08-09T16:50:28.719Z,1.50
2022-08-09T16:52:57.825Z,1.75
2022-08-09T16:55:24.459Z,1.77
2022-08-09T16:58:09.027Z,1.60
2022-08-09T17:00:42.761Z,1.67
2022-08-09T17:03:21.822Z,1.60
2022-08-09T17:06:09.254Z,1.30
2022-08-09T17:08:44.725Z,1.67
2022-08-09T17:11:24.385Z,1.55
2022-08-09T17:14:00.914Z,1.73
2022-08-09T17:16:28.732Z,1.33
2022-08-09T17:18:55.386Z,1.52
2022-08-09T17:21:22.079Z,1.50
2022-08-09T17:24:27.628Z,1.33
2022-08-09T17:26:38.073Z,1.52
2022-08-09T17:29:05.226Z,1.67
2022-08-09T17:31:49.049Z,1.30
2022-08-09T17:34:59.761Z,3.13
2022-08-09T17:37:03.780Z,2.03
2022-08-09T17:39:52.077Z,1.58
2022-08-09T17:42:41.485Z,1.88
2022-08-09T17:45:06.346Z,1.77
2022-08-09T17:47:49.282Z,1.40
2022-08-09T17:50:17.224Z,1.60
2022-08-09T17:52:51.866Z,1.70
2022-08-09T17:55:19.375Z,1.45
2022-08-09T17:58:03.037Z,1.50
2022-08-09T18:07:23.364Z,1.35
2022-08-09T18:10:04.432Z,1.90
2022-08-09T18:12:40.827Z,1.52
2022-08-09T18:15:19.757Z,1.77
2022-08-09T18:18:02.753Z,1.67
2022-08-09T18:20:55.624Z,1.40
2022-08-09T18:24:11.114Z,1.80
2022-08-09T18:26:05.051Z,1.58
2022-08-09T18:30:38.427Z,1.67
2022-08-09T18:31:19.131Z,1.40
2022-08-09T18:33:58.875Z,1.52
2022-08-09T18:36:32.174Z,1.80
2022-08-09T18:39:02.044Z,1.73
2022-08-09T18:41:29.876Z,1.40
2022-08-09T18:44:03.296Z,1.35
2022-08-09T18:46:46.670Z,1.70
2022-08-09T18:49:18.080Z,1.42
2022-08-09T18:51:55.180Z,1.40
2022-08-09T18:54:28.437Z,1.27
2022-08-09T18:59:37.474Z,1.73
2022-08-09T19:02:15.343Z,1.63
2022-08-09T19:04:47.316Z,1.58
2022-08-09T19:07:16.238Z,1.60
2022-08-09T19:10:14.415Z,1.48
2022-08-09T19:12:31.846Z,1.90
2022-08-09T19:15:00.847Z,1.90
2022-08-09T19:17:31.234Z,1.63
2022-08-09T19:19:58.889Z,1.80
2022-08-09T19:22:27.871Z,1.60
2022-08-09T19:25:11.615Z,1.85
2022-08-09T19:27:42.108Z,1.67
2022-08-09T19:30:23.281Z,1.50
2022-08-09T19:32:55.628Z,1.70
2022-08-09T19:35:26.200Z,1.92
2022-08-09T19:37:55.975Z,1.58
2022-08-09T19:40:23.719Z,1.50
2022-08-09T19:43:00.603Z,1.85
2022-08-09T19:45:40.090Z,1.80
2022-08-09T19:48:09.571Z,1.70
2022-08-09T19:50:50.898Z,1.90
2022-08-09T19:53:21.155Z,1.70
2022-08-09T19:56:01.953Z,1.75
2022-08-09T19:58:32.688Z,2.13
2022-08-09T20:00:59.925Z,1.92
2022-08-09T20:04:14.536Z,2.17
2022-08-09T20:06:23.404Z,2.08
2022-08-09T20:08:56.833Z,1.98
2022-08-09T20:11:25.794Z,1.92
2022-08-09T20:13:54.147Z,1.95
2022-08-09T20:16:35.317Z,2.13
2022-08-09T20:19:48.599Z,2.25
2022-08-09T20:21:55.920Z,1.98
2022-08-09T20:24:31.880Z,1.70
2022-08-09T20:27:01.091Z,1.98
2022-08-09T20:29:32.649Z,1.90
2022-08-09T20:32:30.228Z,1.83
2022-08-09T20:34:52.535Z,2.17
2022-08-09T20:37:21.475Z,2.00
2022-08-09T20:40:16.833Z,1.77
2022-08-09T20:42:37.760Z,1.85
2022-08-09T20:46:00.270Z,2.42
2022-08-09T20:47:52.350Z,1.70
2022-08-09T20:50:47.176Z,1.77
2022-08-09T20:53:22.759Z,2.00
2022-08-09T20:56:00.810Z,2.00
2022-08-09T20:58:32.207Z,1.90
2022-08-09T21:01:13.644Z,2.15
2022-08-09T21:14:09.379Z,2.13
2022-08-09T21:16:39.223Z,1.70
2022-08-09T21:20:19.097Z,1.88
2022-08-09T21:22:02.837Z,1.83
2022-08-09T21:24:32.799Z,2.08
2022-08-09T21:27:10.118Z,2.28
2022-08-09T21:29:49.752Z,1.98
2022-08-09T21:32:18.739Z,2.25
2022-08-09T21:34:49.113Z,1.80
2022-08-09T21:37:18.145Z,1.77
2022-08-09T21:39:45.348Z,2.00
2022-08-09T21:42:17.763Z,1.70
2022-08-09T21:44:55.372Z,2.00
2022-08-09T21:47:22.320Z,1.60
2022-08-09T21:49:49.615Z,1.63
2022-08-09T21:52:20.576Z,1.70
2022-08-09T21:54:59.370Z,2.28
2022-08-09T21:57:38.734Z,2.00
2022-08-09T22:00:32.213Z,1.63
2022-08-09T22:03:02.381Z,2.15
2022-08-09T22:05:37.322Z,1.95
2022-08-09T22:08:12.835Z,2.20
2022-08-09T22:11:50.228Z,2.00
2022-08-09T22:13:31.431Z,1.85
2022-08-09T22:16:03.548Z,2.00
2022-08-09T22:18:33.005Z,1.92
2022-08-09T22:21:00.719Z,2.30
2022-08-09T22:23:35.453Z,2.15
2022-08-09T22:26:33.910Z,2.00
2022-08-09T22:29:01.112Z,1.98
2022-08-09T22:31:34.385Z,2.40
2022-08-09T22:34:00.910Z,2.28
2022-08-09T22:36:27.517Z,2.10
2022-08-09T22:38:54.110Z,2.45
2022-08-09T22:41:20.806Z,1.80
2022-08-09T22:44:01.471Z,2.08
2022-08-09T22:48:17.752Z,1.88
2022-08-09T22:49:16.459Z,2.10
2022-08-09T22:51:49.265Z,2.40
2022-08-09T22:54:21.305Z,2.10
2022-08-09T22:56:50.684Z,2.15
2022-08-09T22:59:58.317Z,2.00
2022-08-09T23:02:07.409Z,2.35
2022-08-09T23:04:34.734Z,1.92
2022-08-09T23:08:21.086Z,2.20
2022-08-09T23:10:11.029Z,1.92
2022-08-09T23:12:37.737Z,2.00
2022-08-09T23:15:05.452Z,2.20
2022-08-09T23:17:32.614Z,2.50
2022-08-09T23:20:01.013Z,1.90
2022-08-09T23:22:33.265Z,2.47
2022-08-09T23:24:59.919Z,1.92
2022-08-09T23:27:26.713Z,2.28
2022-08-09T23:29:53.879Z,2.13
2022-08-09T23:32:20.441Z,2.20
2022-08-09T23:34:49.285Z,2.22
2022-08-09T23:37:17.677Z,2.40
2022-08-09T23:39:48.237Z,1.65
2022-08-09T23:42:15.000Z,1.95
2022-08-09T23:44:41.880Z,2.03
2022-08-09T23:47:08.474Z,1.85
2022-08-09T23:49:35.130Z,1.90
2022-08-09T23:52:01.748Z,1.80
2022-08-09T23:54:28.382Z,1.83
2022-08-09T23:56:56.050Z,1.60
2022-08-09T23:59:24.171Z,1.90
